createdAt,value
2018-09-15T00:00:21.236Z,9.20
2018-09-15T00:02:49.813Z,7.20
2018-09-15T00:05:18.089Z,8.47
2018-09-15T00:07:46.177Z,8.27
2018-09-15T00:10:14.313Z,8.33
2018-09-15T00:12:42.532Z,8.50
2018-09-15T00:15:10.773Z,6.90
2018-09-15T00:17:41.669Z,8.10
2018-09-15T00:20:10.112Z,7.97
2018-09-15T00:22:39.347Z,7.60
2018-09-15T00:25:07.692Z,8.50
2018-09-15T00:27:35.866Z,8.10
2018-09-15T00:30:04.053Z,6.70
2018-09-15T00:32:32.164Z,7.20
2018-09-15T00:35:00.117Z,7.80
2018-09-15T00:37:28.461Z,7.17
2018-09-15T00:39:56.382Z,6.70
2018-09-15T00:42:24.388Z,6.20
2018-09-15T00:44:52.308Z,6.07
2018-09-15T00:47:20.264Z,6.33
2018-09-15T00:49:48.337Z,6.70
2018-09-15T00:52:16.400Z,5.57
2018-09-15T00:54:44.493Z,7.87
2018-09-15T00:57:12.528Z,7.13
2018-09-15T00:59:40.826Z,7.40
2018-09-15T01:02:09.089Z,7.63
2018-09-15T01:04:37.330Z,8.30
2018-09-15T01:07:05.420Z,7.37
2018-09-15T01:09:33.626Z,7.60
2018-09-15T01:12:01.637Z,7.33
2018-09-15T01:14:29.840Z,7.73
2018-09-15T01:16:57.659Z,8.13
2018-09-15T01:19:25.562Z,8.57
2018-09-15T01:21:53.491Z,7.90
2018-09-15T01:24:21.392Z,7.87
2018-09-15T01:26:49.534Z,7.93
2018-09-15T01:29:17.722Z,8.20
2018-09-15T01:31:45.986Z,7.77
2018-09-15T01:34:14.085Z,7.47
2018-09-15T01:36:42.140Z,7.20
2018-09-15T01:39:10.647Z,8.70
2018-09-15T01:41:39.193Z,7.33
2018-09-15T01:44:07.189Z,6.90
2018-09-15T01:46:35.140Z,6.93
2018-09-15T01:49:03.122Z,8.20
2018-09-15T01:51:31.084Z,7.23
2018-09-15T01:53:58.982Z,6.77
2018-09-15T01:56:27.051Z,6.43
2018-09-15T01:58:55.165Z,6.63
2018-09-15T02:01:23.096Z,7.80
2018-09-15T02:03:51.035Z,7.53
2018-09-15T02:06:19.048Z,7.17
2018-09-15T02:08:47.160Z,7.87
2018-09-15T02:11:15.230Z,7.70
2018-09-15T02:13:43.316Z,7.57
2018-09-15T02:16:11.389Z,9.00
2018-09-15T02:18:39.823Z,8.93
2018-09-15T02:21:08.700Z,8.40
2018-09-15T02:23:37.181Z,9.83
2018-09-15T02:26:05.440Z,8.33
2018-09-15T02:28:33.688Z,9.30
2018-09-15T02:31:01.831Z,8.80
2018-09-15T02:33:29.780Z,8.27
2018-09-15T02:35:57.806Z,8.63
2018-09-15T02:38:25.759Z,9.10
2018-09-15T02:40:53.682Z,8.33
2018-09-15T02:43:21.597Z,9.50
2018-09-15T02:45:49.846Z,8.50
2018-09-15T02:48:17.989Z,7.80
2018-09-15T02:50:46.143Z,8.93
2018-09-15T02:53:14.335Z,10.00
2018-09-15T02:55:42.697Z,9.20
2018-09-15T02:58:11.012Z,8.80
2018-09-15T03:00:39.365Z,9.20
2018-09-15T03:03:07.806Z,10.00
2018-09-15T03:05:35.812Z,9.60
2018-09-15T03:08:04.438Z,9.50
2018-09-15T03:10:32.575Z,9.83
2018-09-15T03:13:00.567Z,10.07
2018-09-15T03:15:28.590Z,8.47
2018-09-15T03:17:56.528Z,10.57
2018-09-15T03:20:24.499Z,11.63
2018-09-15T03:22:52.426Z,10.30
2018-09-15T03:25:20.394Z,11.30
2018-09-15T03:27:48.491Z,12.43
2018-09-15T03:30:16.695Z,10.57
2018-09-15T03:32:44.762Z,10.70
2018-09-15T03:35:12.886Z,10.70
2018-09-15T03:37:41.108Z,11.70
2018-09-15T03:40:09.534Z,11.70
2018-09-15T03:42:37.704Z,12.80
2018-09-15T03:45:06.038Z,10.43
2018-09-15T03:47:34.180Z,11.90
2018-09-15T03:50:02.408Z,11.63
2018-09-15T03:52:30.396Z,12.40
2018-09-15T03:54:58.348Z,13.87
2018-09-15T03:57:26.297Z,13.57
2018-09-15T03:59:54.318Z,14.53
2018-09-15T04:02:22.230Z,14.90
2018-09-15T04:04:50.267Z,13.30
2018-09-15T04:07:18.307Z,14.07
2018-09-15T04:09:46.492Z,15.57
2018-09-15T04:12:14.645Z,14.83
2018-09-15T04:14:42.770Z,14.27
2018-09-15T04:17:10.997Z,15.67
2018-09-15T04:19:39.248Z,14.43
2018-09-15T04:22:08.628Z,15.53
2018-09-15T04:24:37.106Z,14.20
2018-09-15T04:27:05.184Z,15.13
2018-09-15T04:29:33.392Z,15.27
2018-09-15T04:32:01.460Z,17.57
2018-09-15T04:34:29.429Z,17.07
2018-09-15T04:36:57.352Z,16.80
2018-09-15T04:39:25.288Z,18.97
2018-09-15T04:41:53.281Z,15.80
2018-09-15T04:44:21.153Z,18.93
2018-09-15T04:46:49.146Z,20.57
2018-09-15T04:49:17.224Z,20.30
2018-09-15T04:51:45.371Z,21.13
2018-09-15T04:54:13.499Z,21.23
2018-09-15T04:56:41.559Z,20.60
2018-09-15T04:59:09.765Z,21.83
2018-09-15T05:01:38.669Z,20.97
2018-09-15T05:04:07.045Z,22.63
2018-09-15T05:06:35.579Z,24.20
2018-09-15T05:09:04.160Z,25.43
2018-09-15T05:11:32.359Z,24.53
2018-09-15T05:14:00.306Z,23.50
2018-09-15T05:16:28.212Z,23.40
2018-09-15T05:18:56.188Z,23.13
2018-09-15T05:21:24.157Z,25.40
2018-09-15T05:23:52.084Z,24.03
2018-09-15T05:26:20.086Z,25.17
2018-09-15T05:28:48.226Z,25.10
2018-09-15T05:31:16.272Z,24.70
2018-09-15T05:33:44.386Z,25.90
2018-09-15T05:36:12.599Z,28.17
2018-09-15T05:38:40.805Z,27.13
2018-09-15T05:41:09.058Z,26.83
2018-09-15T05:43:37.278Z,29.83
2018-09-15T05:46:05.374Z,30.37
2018-09-15T05:48:33.746Z,27.60
2018-09-15T05:51:01.703Z,25.80
2018-09-15T05:53:29.685Z,26.33
2018-09-15T05:55:57.659Z,29.50
2018-09-15T05:58:25.588Z,30.27
2018-09-15T06:00:54.024Z,28.67
2018-09-15T06:03:22.035Z,28.73
2018-09-15T06:05:50.090Z,31.10
2018-09-15T06:08:18.110Z,30.50
2018-09-15T06:10:46.116Z,30.70
2018-09-15T06:13:14.561Z,28.87
2018-09-15T06:15:42.903Z,29.33
2018-09-15T06:18:11.285Z,29.23
2018-09-15T06:20:39.924Z,31.00
2018-09-15T06:23:09.265Z,31.87
2018-09-15T06:25:37.795Z,28.00
2018-09-15T06:28:06.241Z,28.80
2018-09-15T06:30:37.463Z,30.80
2018-09-15T06:33:06.875Z,31.03
2018-09-15T06:35:35.644Z,32.30
2018-09-15T06:38:04.012Z,31.77
2018-09-15T06:40:32.097Z,32.63
2018-09-15T06:43:00.856Z,32.07
2018-09-15T06:45:29.582Z,32.50
2018-09-15T06:47:57.544Z,30.87
2018-09-15T06:50:25.524Z,30.50
2018-09-15T06:52:53.468Z,30.37
2018-09-15T06:55:21.441Z,32.20
2018-09-15T06:57:49.538Z,32.53
2018-09-15T07:00:17.739Z,29.43
2018-09-15T07:02:45.904Z,31.70
2018-09-15T07:05:14.089Z,30.43
2018-09-15T07:07:42.185Z,33.07
2018-09-15T07:10:10.376Z,31.23
2018-09-15T07:12:39.472Z,28.97
2018-09-15T07:15:07.720Z,30.43
2018-09-15T07:17:35.803Z,26.73
2018-09-15T07:20:03.941Z,27.40
2018-09-15T07:22:33.508Z,27.10
2018-09-15T07:25:02.573Z,27.87
2018-09-15T07:27:30.499Z,27.70
2018-09-15T07:30:06.244Z,28.27
2018-09-15T07:32:34.953Z,25.77
2018-09-15T07:35:04.191Z,25.30
2018-09-15T07:37:33.297Z,26.03
2018-09-15T07:40:02.623Z,24.93
2018-09-15T07:42:32.273Z,23.20
2018-09-15T07:45:02.050Z,24.83
2018-09-15T07:47:32.831Z,22.83
2018-09-15T07:50:02.450Z,24.77
2018-09-15T07:52:33.508Z,25.47
2018-09-15T07:55:03.541Z,25.23
2018-09-15T07:57:33.079Z,25.03
2018-09-15T08:00:03.617Z,23.83
2018-09-15T08:02:32.833Z,24.73
2018-09-15T08:05:01.148Z,25.37
2018-09-15T08:07:29.267Z,24.60
2018-09-15T08:09:57.677Z,25.27
2018-09-15T08:12:25.966Z,24.07
2018-09-15T08:14:54.261Z,28.13
2018-09-15T08:17:23.049Z,25.90
2018-09-15T08:22:36.902Z,25.07
2018-09-15T08:25:09.588Z,24.87
2018-09-15T08:27:39.409Z,23.07
2018-09-15T08:30:17.562Z,25.20
2018-09-15T08:32:46.334Z,26.83
2018-09-15T08:35:15.385Z,26.87
2018-09-15T08:37:44.624Z,26.73
2018-09-15T08:40:13.191Z,25.17
2018-09-15T08:42:44.930Z,24.87
2018-09-15T08:45:13.848Z,24.77
2018-09-15T08:47:43.520Z,25.60
2018-09-15T08:50:16.720Z,24.77
2018-09-15T08:52:45.662Z,24.30
2018-09-15T08:55:16.505Z,23.20
2018-09-15T08:57:44.991Z,24.20
2018-09-15T09:00:13.656Z,25.50
2018-09-15T09:02:42.571Z,24.60
2018-09-15T09:07:44.699Z,24.40
2018-09-15T09:10:13.084Z,22.77
2018-09-15T09:12:42.961Z,24.37
2018-09-15T09:15:11.838Z,24.20
2018-09-15T09:17:43.048Z,20.50
2018-09-15T09:20:12.030Z,21.07
2018-09-15T09:22:41.011Z,21.30
2018-09-15T09:25:09.907Z,22.30
2018-09-15T09:27:38.583Z,21.57
2018-09-15T09:30:07.349Z,22.33
2018-09-15T09:32:37.987Z,19.57
2018-09-15T09:35:08.485Z,21.57
2018-09-15T09:37:40.889Z,20.70
2018-09-15T09:40:10.488Z,20.03
2018-09-15T09:42:39.542Z,21.73
2018-09-15T09:45:09.912Z,20.80
2018-09-15T09:47:40.349Z,19.07
2018-09-15T09:50:09.510Z,20.50
2018-09-15T09:52:38.372Z,18.10
2018-09-15T09:55:09.717Z,19.23
2018-09-15T09:57:38.882Z,19.70
2018-09-15T10:00:07.504Z,22.13
2018-09-15T10:02:36.022Z,19.17
2018-09-15T10:05:04.462Z,21.80
2018-09-15T10:07:33.033Z,22.73
2018-09-15T10:10:07.406Z,20.83
2018-09-15T10:12:35.749Z,21.27
2018-09-15T10:15:05.046Z,20.90
2018-09-15T10:17:34.170Z,18.30
2018-09-15T10:20:13.605Z,19.03
2018-09-15T10:22:42.336Z,21.20
2018-09-15T10:27:55.157Z,15.83
2018-09-15T10:30:23.191Z,15.03
2018-09-15T10:32:52.637Z,15.93
2018-09-15T10:35:20.947Z,13.27
2018-09-15T10:37:49.637Z,14.67
2018-09-15T10:40:18.088Z,14.90
2018-09-15T10:42:46.933Z,14.30
2018-09-15T10:45:15.722Z,14.33
2018-09-15T10:47:44.276Z,14.43
2018-09-15T10:50:13.090Z,15.60
2018-09-15T10:52:41.739Z,13.93
2018-09-15T10:55:11.093Z,12.93
2018-09-15T10:57:40.150Z,12.23
2018-09-15T11:00:09.058Z,10.77
2018-09-15T11:02:37.970Z,13.10
2018-09-15T11:05:06.173Z,12.83
2018-09-15T11:07:34.965Z,12.57
2018-09-15T11:10:04.130Z,10.47
2018-09-15T11:12:32.913Z,10.13
2018-09-15T11:15:05.716Z,10.17
2018-09-15T11:17:34.697Z,11.30
2018-09-15T11:20:03.137Z,9.80
2018-09-15T11:22:32.130Z,11.43
2018-09-15T11:25:00.498Z,10.57
2018-09-15T11:27:28.705Z,10.70
2018-09-15T11:29:57.817Z,10.60
2018-09-15T11:32:26.021Z,10.10
2018-09-15T11:34:54.647Z,8.30
2018-09-15T11:37:24.013Z,10.90
2018-09-15T11:39:52.789Z,10.47
2018-09-15T11:42:21.177Z,9.40
2018-09-15T11:44:49.672Z,8.50
2018-09-15T11:47:18.891Z,8.43
2018-09-15T11:49:48.926Z,8.93
2018-09-15T11:52:17.798Z,8.50
2018-09-15T11:54:46.236Z,8.53
2018-09-15T11:57:15.550Z,9.53
2018-09-15T11:59:44.142Z,10.00
2018-09-15T12:02:13.923Z,10.83
2018-09-15T12:04:43.136Z,10.93
2018-09-15T12:07:11.799Z,9.10
2018-09-15T12:09:40.631Z,8.80
2018-09-15T12:12:09.812Z,8.47
2018-09-15T12:14:39.668Z,10.63
2018-09-15T12:17:08.736Z,9.40
2018-09-15T12:19:37.344Z,11.10
2018-09-15T12:22:05.438Z,10.83
2018-09-15T12:24:37.692Z,13.47
2018-09-15T12:27:09.548Z,10.77
2018-09-15T12:29:40.536Z,11.83
2018-09-15T12:32:13.783Z,10.43
2018-09-15T12:34:42.810Z,11.63
2018-09-15T12:37:11.330Z,10.50
2018-09-15T12:39:42.522Z,9.90
2018-09-15T12:42:12.124Z,9.73
2018-09-15T12:44:41.079Z,9.57
2018-09-15T12:47:10.132Z,9.30
2018-09-15T12:49:41.131Z,9.77
2018-09-15T12:52:09.989Z,9.40
2018-09-15T12:54:39.246Z,11.83
2018-09-15T12:57:13.255Z,10.77
2018-09-15T13:02:15.874Z,9.60
2018-09-15T13:04:45.791Z,10.47
2018-09-15T13:07:14.475Z,9.27
2018-09-15T13:09:51.899Z,8.90
2018-09-15T13:14:56.392Z,10.43
2018-09-15T13:17:30.367Z,10.77
2018-09-15T13:22:41.886Z,9.30
2018-09-15T13:25:18.535Z,9.50
2018-09-15T13:27:54.820Z,9.90
2018-09-15T13:30:37.407Z,9.33
2018-09-15T13:33:08.750Z,9.90
2018-09-15T13:38:15.675Z,7.17
2018-09-15T13:40:51.552Z,8.10
2018-09-15T13:43:20.142Z,8.50
2018-09-15T13:45:59.034Z,8.37
2018-09-15T13:51:06.548Z,8.40
2018-09-15T13:53:43.686Z,10.10
2018-09-15T13:56:20.262Z,9.67
2018-09-15T14:01:27.170Z,9.70
2018-09-15T14:03:55.654Z,8.77
2018-09-15T14:06:28.843Z,9.13
2018-09-15T14:11:40.021Z,9.73
2018-09-15T14:14:14.671Z,10.73
2018-09-15T14:16:43.311Z,8.87
2018-09-15T14:19:12.027Z,9.63
2018-09-15T14:21:41.547Z,9.40
2018-09-15T14:24:10.425Z,9.57
2018-09-15T14:26:41.124Z,9.80
2018-09-15T14:29:09.998Z,11.37
2018-09-15T14:31:39.315Z,9.93
2018-09-15T14:34:07.460Z,8.50
2018-09-15T14:36:39.762Z,8.90
2018-09-15T14:39:13.342Z,10.20
2018-09-15T14:41:42.453Z,8.53
2018-09-15T14:44:11.321Z,8.73
2018-09-15T14:46:43.408Z,10.00
2018-09-15T14:49:13.705Z,8.07
2018-09-15T14:51:42.698Z,9.87
2018-09-15T14:54:15.439Z,11.27
2018-09-15T14:56:45.451Z,8.37
2018-09-15T14:59:14.131Z,8.50
2018-09-15T15:01:47.657Z,8.90
2018-09-15T15:04:16.399Z,8.20
2018-09-15T15:09:18.745Z,8.60
2018-09-15T15:11:47.671Z,8.60
2018-09-15T15:14:20.213Z,11.57
2018-09-15T15:16:56.972Z,9.40
2018-09-15T15:22:03.963Z,9.27
2018-09-15T15:24:42.968Z,9.10
2018-09-15T15:29:51.447Z,8.03
2018-09-15T15:40:30.107Z,7.57
2018-09-15T15:45:51.660Z,9.73
2018-09-15T15:48:20.111Z,9.17
2018-09-15T15:50:50.704Z,7.50
2018-09-15T15:53:27.640Z,8.07
2018-09-15T15:56:00.718Z,8.97
2018-09-15T15:58:29.531Z,8.13
2018-09-15T16:03:36.203Z,9.13
2018-09-15T16:06:06.532Z,9.83
2018-09-15T16:13:57.458Z,10.03
2018-09-15T16:19:11.559Z,10.83
2018-09-15T16:21:40.590Z,8.20
2018-09-15T16:24:09.973Z,10.27
2018-09-15T16:26:40.616Z,9.53
2018-09-15T16:29:13.630Z,8.10
2018-09-15T16:31:48.686Z,8.83
2018-09-15T16:34:21.035Z,8.90
2018-09-15T16:36:54.619Z,8.50
2018-09-15T16:42:01.363Z,9.00
2018-09-15T16:44:35.162Z,9.73
2018-09-15T16:47:04.125Z,7.60
2018-09-15T16:52:16.684Z,9.33
2018-09-15T16:54:45.564Z,7.70
2018-09-15T16:57:22.475Z,7.30
2018-09-15T16:59:59.681Z,8.70
2018-09-15T17:02:36.057Z,8.20
2018-09-15T17:07:40.429Z,8.47
2018-09-15T17:10:09.763Z,9.00
2018-09-15T17:12:43.802Z,8.63
2018-09-15T17:15:13.729Z,7.70
2018-09-15T17:17:42.211Z,8.53
2018-09-15T17:20:15.117Z,7.47
2018-09-15T17:25:30.595Z,9.50
2018-09-15T17:28:09.733Z,7.70
2018-09-15T17:33:49.606Z,8.90
2018-09-15T17:36:26.761Z,8.20
2018-09-15T17:39:05.006Z,7.80
2018-09-15T17:41:39.269Z,7.40
2018-09-15T17:44:12.989Z,7.87
2018-09-15T17:49:22.329Z,7.10
2018-09-15T17:51:50.661Z,7.47
2018-09-15T17:54:19.127Z,7.60
2018-09-15T17:56:47.425Z,8.03
2018-09-15T17:59:15.837Z,8.30
2018-09-15T18:01:44.432Z,8.17
2018-09-15T18:04:13.318Z,8.57
2018-09-15T18:09:23.528Z,7.70
2018-09-15T18:11:52.754Z,8.40
2018-09-15T18:14:23.698Z,8.90
2018-09-15T18:16:56.382Z,8.40
2018-09-15T18:22:15.347Z,7.40
2018-09-15T18:24:51.087Z,8.33
2018-09-15T18:27:23.654Z,7.83
2018-09-15T18:32:36.385Z,8.53
2018-09-15T18:35:06.842Z,9.33
2018-09-15T18:37:35.690Z,9.00
2018-09-15T18:40:08.692Z,7.77
2018-09-15T18:42:39.090Z,9.10
2018-09-15T18:45:15.070Z,8.37
2018-09-15T18:47:52.237Z,8.33
2018-09-15T18:55:35.494Z,8.57
2018-09-15T19:03:36.120Z,9.67
2018-09-15T19:08:49.250Z,10.50
2018-09-15T19:11:17.577Z,13.27
2018-09-15T19:13:46.561Z,10.90
2018-09-15T19:16:15.949Z,10.00
2018-09-15T19:18:45.189Z,11.20
2018-09-15T19:21:14.861Z,10.53
2018-09-15T19:23:44.446Z,11.77
2018-09-15T19:26:14.687Z,9.60
2018-09-15T19:28:42.956Z,10.50
2018-09-15T19:31:12.625Z,10.90
2018-09-15T19:33:42.008Z,9.60
2018-09-15T19:36:15.748Z,10.97
2018-09-15T19:41:24.757Z,10.70
2018-09-15T19:43:54.343Z,10.50
2018-09-15T19:46:22.673Z,11.10
2018-09-15T19:48:54.999Z,9.93
2018-09-15T19:53:58.949Z,12.70
2018-09-15T19:56:27.435Z,11.57
2018-09-15T19:58:56.140Z,11.93
2018-09-15T20:01:24.550Z,11.27
2018-09-15T20:06:39.517Z,11.77
2018-09-15T20:09:12.790Z,11.83
2018-09-15T20:11:41.398Z,10.10
2018-09-15T20:14:09.786Z,11.73
2018-09-15T20:16:38.420Z,11.13
2018-09-15T20:19:06.542Z,10.40
2018-09-15T20:21:34.576Z,9.40
2018-09-15T20:24:09.821Z,8.90
2018-09-15T20:26:38.164Z,9.10
2018-09-15T20:29:07.165Z,9.43
2018-09-15T20:31:35.395Z,9.03
2018-09-15T20:34:03.801Z,8.80
2018-09-15T20:36:32.981Z,9.40
2018-09-15T20:39:02.205Z,10.30
2018-09-15T20:44:12.722Z,10.73
2018-09-15T20:46:42.632Z,9.60
2018-09-15T20:49:11.933Z,10.33
2018-09-15T20:51:40.620Z,12.20
2018-09-15T20:54:14.808Z,11.53
2018-09-15T20:56:43.614Z,11.63
2018-09-15T20:59:12.817Z,12.03
2018-09-15T21:01:41.713Z,13.90
2018-09-15T21:04:11.991Z,13.40
2018-09-15T21:06:40.872Z,13.10
2018-09-15T21:09:11.198Z,10.70
2018-09-15T21:11:42.525Z,11.50
2018-09-15T21:14:10.863Z,12.33
2018-09-15T21:16:48.194Z,12.07
2018-09-15T21:19:17.254Z,11.80
2018-09-15T21:21:46.015Z,13.30
2018-09-15T21:24:14.700Z,12.50
2018-09-15T21:26:43.168Z,12.90
2018-09-15T21:29:11.938Z,12.97
2018-09-15T21:31:40.875Z,14.30
2018-09-15T21:34:10.586Z,14.47
2018-09-15T21:36:39.005Z,12.23
2018-09-15T21:39:11.245Z,15.00
2018-09-15T21:41:40.268Z,15.30
2018-09-15T21:44:10.375Z,14.77
2018-09-15T21:46:41.967Z,15.00
2018-09-15T21:49:10.588Z,15.07
2018-09-15T21:51:39.144Z,14.27
2018-09-15T21:54:15.742Z,16.00
2018-09-15T21:56:44.513Z,15.33
2018-09-15T21:59:13.975Z,15.03
2018-09-15T22:01:51.214Z,15.60
2018-09-15T22:04:23.494Z,15.90
2018-09-15T22:07:00.118Z,17.30
2018-09-15T22:12:00.939Z,15.80
2018-09-15T22:17:15.497Z,16.33
2018-09-15T22:19:49.342Z,16.70
2018-09-15T22:22:18.256Z,17.30
2018-09-15T22:24:46.602Z,16.80
2018-09-15T22:27:19.391Z,17.13
2018-09-15T22:29:48.452Z,15.00
2018-09-15T22:34:57.665Z,16.17
2018-09-15T22:37:26.062Z,17.73
2018-09-15T22:39:54.155Z,17.43
2018-09-15T22:42:22.369Z,18.90
2018-09-15T22:44:50.519Z,17.70
2018-09-15T22:47:18.641Z,16.17
2018-09-15T22:49:51.013Z,16.93
2018-09-15T22:52:23.312Z,18.33
2018-09-15T22:54:52.306Z,17.53
2018-09-15T22:57:22.254Z,20.70
2018-09-15T22:59:55.337Z,18.40
2018-09-15T23:02:26.489Z,17.77
2018-09-15T23:04:54.635Z,17.13
2018-09-15T23:07:28.398Z,18.40
2018-09-15T23:09:56.735Z,18.40
2018-09-15T23:12:33.292Z,20.43
2018-09-15T23:15:01.675Z,16.37
2018-09-15T23:17:30.621Z,18.90
2018-09-15T23:19:58.837Z,16.43
2018-09-15T23:22:26.917Z,19.10
2018-09-15T23:24:55.147Z,19.33
2018-09-15T23:27:23.683Z,19.70
2018-09-15T23:29:51.857Z,18.53
2018-09-15T23:32:19.965Z,18.50
2018-09-15T23:34:48.333Z,18.87
2018-09-15T23:37:17.681Z,19.53
2018-09-15T23:39:46.462Z,19.27
2018-09-15T23:42:14.685Z,19.00
2018-09-15T23:44:43.886Z,20.27
2018-09-15T23:47:12.732Z,19.83
2018-09-15T23:49:41.169Z,18.80
2018-09-15T23:52:10.705Z,18.17
2018-09-15T23:54:39.429Z,18.67
2018-09-15T23:57:08.693Z,19.00
2018-09-15T23:59:37.910Z,17.03
